sensor_id;sensor_type;location;lat;lon;timestamp;pressure;altitude;pressure_sealevel;temperature;humidity
60715;BME280;46564;53.096;8.246;2022-08-03T00:03:40;57128.34;;;-147.53;100.00
60715;BME280;46564;53.096;8.246;2022-08-03T00:08:42;57128.34;;;-147.53;100.00
60715;BME280;46564;53.096;8.246;2022-08-03T00:13:44;57128.34;;;-147.53;100.00
60715;BME280;46564;53.096;8.246;2022-08-03T00:18:45;57128.34;;;-147.53;100.00
60715;BME280;46564;53.096;8.246;2022-08-03T00:23:47;57128.34;;;-147.53;100.00
60715;BME280;46564;53.096;8.246;2022-08-03T00:28:53;57128.34;;;-147.53;100.00
60715;BME280;46564;53.096;8.246;2022-08-03T00:33:54;57128.34;;;-147.53;100.00
60715;BME280;46564;53.096;8.246;2022-08-03T00:39:03;57128.34;;;-147.53;100.00
60715;BME280;46564;53.096;8.246;2022-08-03T00:44:05;57128.34;;;-147.53;100.00
60715;BME280;46564;53.096;8.246;2022-08-03T00:49:07;57128.34;;;-147.53;100.00
60715;BME280;46564;53.096;8.246;2022-08-03T00:54:09;57128.34;;;-147.53;100.00
60715;BME280;46564;53.096;8.246;2022-08-03T00:59:11;57128.34;;;-147.53;100.00
60715;BME280;46564;53.096;8.246;2022-08-03T01:04:14;57128.34;;;-147.53;100.00
60715;BME280;46564;53.096;8.246;2022-08-03T01:14:54;57128.34;;;-147.53;100.00
60715;BME280;46564;53.096;8.246;2022-08-03T01:20:06;57128.34;;;-147.53;100.00
60715;BME280;46564;53.096;8.246;2022-08-03T01:25:37;57128.34;;;-147.53;100.00
60715;BME280;46564;53.096;8.246;2022-08-03T01:30:43;57128.34;;;-147.53;100.00
60715;BME280;46564;53.096;8.246;2022-08-03T01:36:02;57128.34;;;-147.53;100.00
60715;BME280;46564;53.096;8.246;2022-08-03T01:41:16;57128.34;;;-147.53;100.00
60715;BME280;46564;53.096;8.246;2022-08-03T01:46:19;57128.34;;;-147.53;100.00
60715;BME280;46564;53.096;8.246;2022-08-03T01:51:24;57128.34;;;-147.53;100.00
60715;BME280;46564;53.096;8.246;2022-08-03T01:57:07;57128.34;;;-147.53;100.00
60715;BME280;46564;53.096;8.246;2022-08-03T02:02:13;57128.34;;;-147.53;100.00
60715;BME280;46564;53.096;8.246;2022-08-03T02:07:35;57128.34;;;-147.53;100.00
60715;BME280;46564;53.096;8.246;2022-08-03T02:12:38;57128.34;;;-147.53;100.00
60715;BME280;46564;53.096;8.246;2022-08-03T02:17:41;57128.34;;;-147.53;100.00
60715;BME280;46564;53.096;8.246;2022-08-03T02:22:45;57128.34;;;-147.53;100.00
60715;BME280;46564;53.096;8.246;2022-08-03T02:28:00;57128.34;;;-147.53;100.00
60715;BME280;46564;53.096;8.246;2022-08-03T02:33:15;57128.34;;;-147.53;100.00
60715;BME280;46564;53.096;8.246;2022-08-03T02:38:20;57128.34;;;-147.53;100.00
60715;BME280;46564;53.096;8.246;2022-08-03T02:43:24;57128.34;;;-147.53;100.00
60715;BME280;46564;53.096;8.246;2022-08-03T02:48:28;57128.34;;;-147.53;100.00
60715;BME280;46564;53.096;8.246;2022-08-03T02:53:32;57128.34;;;-147.53;100.00
60715;BME280;46564;53.096;8.246;2022-08-03T02:58:36;57128.34;;;-147.53;100.00
60715;BME280;46564;53.096;8.246;2022-08-03T03:03:39;57128.34;;;-147.53;100.00
60715;BME280;46564;53.096;8.246;2022-08-03T03:08:46;57128.34;;;-147.53;100.00
60715;BME280;46564;53.096;8.246;2022-08-03T03:13:49;57128.34;;;-147.53;100.00
60715;BME280;46564;53.096;8.246;2022-08-03T03:18:53;57128.34;;;-147.53;100.00
60715;BME280;46564;53.096;8.246;2022-08-03T03:23:55;57128.34;;;-147.53;100.00
60715;BME280;46564;53.096;8.246;2022-08-03T03:28:57;57128.34;;;-147.53;100.00
60715;BME280;46564;53.096;8.246;2022-08-03T03:33:59;57128.34;;;-147.53;100.00
60715;BME280;46564;53.096;8.246;2022-08-03T03:39:01;57128.34;;;-147.53;100.00
60715;BME280;46564;53.096;8.246;2022-08-03T03:44:16;57128.34;;;-147.53;100.00
60715;BME280;46564;53.096;8.246;2022-08-03T03:49:18;57128.34;;;-147.53;100.00
60715;BME280;46564;53.096;8.246;2022-08-03T03:54:21;57128.34;;;-147.53;100.00
60715;BME280;46564;53.096;8.246;2022-08-03T03:59:29;57128.34;;;-147.53;100.00
60715;BME280;46564;53.096;8.246;2022-08-03T04:04:36;57128.34;;;-147.53;100.00
60715;BME280;46564;53.096;8.246;2022-08-03T04:09:57;57128.34;;;-147.53;100.00
60715;BME280;46564;53.096;8.246;2022-08-03T04:15:20;57128.34;;;-147.53;100.00
60715;BME280;46564;53.096;8.246;2022-08-03T04:20:27;57128.34;;;-147.53;100.00
60715;BME280;46564;53.096;8.246;2022-08-03T04:25:33;57128.34;;;-147.53;100.00
60715;BME280;46564;53.096;8.246;2022-08-03T04:30:39;57128.34;;;-147.53;100.00
60715;BME280;46564;53.096;8.246;2022-08-03T04:35:42;57128.34;;;-147.53;100.00
60715;BME280;46564;53.096;8.246;2022-08-03T04:41:03;57128.34;;;-147.53;100.00
60715;BME280;46564;53.096;8.246;2022-08-03T04:46:06;57128.34;;;-147.53;100.00
60715;BME280;46564;53.096;8.246;2022-08-03T04:51:08;57128.34;;;-147.53;100.00
60715;BME280;46564;53.096;8.246;2022-08-03T04:56:11;57128.34;;;-147.53;100.00
60715;BME280;46564;53.096;8.246;2022-08-03T05:01:14;57128.34;;;-147.53;100.00
60715;BME280;46564;53.096;8.246;2022-08-03T05:06:16;57128.34;;;-147.53;100.00
60715;BME280;46564;53.096;8.246;2022-08-03T05:11:18;57128.34;;;-147.53;100.00
60715;BME280;46564;53.096;8.246;2022-08-03T05:16:20;57128.34;;;-147.53;100.00
60715;BME280;46564;53.096;8.246;2022-08-03T05:21:21;57128.34;;;-147.53;100.00
60715;BME280;46564;53.096;8.246;2022-08-03T05:26:23;57128.34;;;-147.53;100.00
60715;BME280;46564;53.096;8.246;2022-08-03T05:31:27;57128.34;;;-147.53;100.00
60715;BME280;46564;53.096;8.246;2022-08-03T05:36:29;57128.34;;;-147.53;100.00
60715;BME280;46564;53.096;8.246;2022-08-03T05:41:31;57128.34;;;-147.53;100.00
60715;BME280;46564;53.096;8.246;2022-08-03T05:46:38;57128.34;;;-147.53;100.00
60715;BME280;46564;53.096;8.246;2022-08-03T05:51:40;57128.34;;;-147.53;100.00
60715;BME280;46564;53.096;8.246;2022-08-03T05:56:42;57128.34;;;-147.53;100.00
60715;BME280;46564;53.096;8.246;2022-08-03T06:01:44;57128.34;;;-147.53;100.00
60715;BME280;46564;53.096;8.246;2022-08-03T06:06:47;57128.34;;;-147.53;100.00
60715;BME280;46564;53.096;8.246;2022-08-03T06:11:51;57128.34;;;-147.53;100.00
60715;BME280;46564;53.096;8.246;2022-08-03T06:16:53;57128.34;;;-147.53;100.00
60715;BME280;46564;53.096;8.246;2022-08-03T06:21:55;57128.34;;;-147.53;100.00
60715;BME280;46564;53.096;8.246;2022-08-03T06:26:56;57128.34;;;-147.53;100.00
60715;BME280;46564;53.096;8.246;2022-08-03T06:31:58;57128.34;;;-147.53;100.00
60715;BME280;46564;53.096;8.246;2022-08-03T06:36:59;57128.34;;;-147.53;100.00
60715;BME280;46564;53.096;8.246;2022-08-03T06:42:02;57128.34;;;-147.53;100.00
60715;BME280;46564;53.096;8.246;2022-08-03T06:47:06;57128.34;;;-147.53;100.00
60715;BME280;46564;53.096;8.246;2022-08-03T06:52:09;57128.34;;;-147.53;100.00
60715;BME280;46564;53.096;8.246;2022-08-03T06:57:11;57128.34;;;-147.53;100.00
60715;BME280;46564;53.096;8.246;2022-08-03T07:02:13;57128.34;;;-147.53;100.00
60715;BME280;46564;53.096;8.246;2022-08-03T07:07:19;57128.34;;;-147.53;100.00
60715;BME280;46564;53.096;8.246;2022-08-03T07:12:21;57128.34;;;-147.53;100.00
60715;BME280;46564;53.096;8.246;2022-08-03T07:17:23;57128.34;;;-147.53;100.00
60715;BME280;46564;53.096;8.246;2022-08-03T07:22:24;57128.34;;;-147.53;100.00
60715;BME280;46564;53.096;8.246;2022-08-03T07:27:27;57128.34;;;-147.53;100.00
60715;BME280;46564;53.096;8.246;2022-08-03T07:32:30;57128.34;;;-147.53;100.00
60715;BME280;46564;53.096;8.246;2022-08-03T07:37:32;57128.34;;;-147.53;100.00
60715;BME280;46564;53.096;8.246;2022-08-03T07:42:34;57128.34;;;-147.53;100.00
60715;BME280;46564;53.096;8.246;2022-08-03T07:47:35;57128.34;;;-147.53;100.00
60715;BME280;46564;53.096;8.246;2022-08-03T07:52:37;57128.34;;;-147.53;100.00
60715;BME280;46564;53.096;8.246;2022-08-03T07:58:03;57128.34;;;-147.53;100.00
60715;BME280;46564;53.096;8.246;2022-08-03T08:03:05;57128.34;;;-147.53;100.00
60715;BME280;46564;53.096;8.246;2022-08-03T08:08:07;57128.34;;;-147.53;100.00
60715;BME280;46564;53.096;8.246;2022-08-03T08:13:09;57128.34;;;-147.53;100.00
60715;BME280;46564;53.096;8.246;2022-08-03T08:18:12;57128.34;;;-147.53;100.00
60715;BME280;46564;53.096;8.246;2022-08-03T08:23:20;57128.34;;;-147.53;100.00
60715;BME280;46564;53.096;8.246;2022-08-03T08:28:43;57128.34;;;-147.53;100.00
60715;BME280;46564;53.096;8.246;2022-08-03T08:33:45;57128.34;;;-147.53;100.00
60715;BME280;46564;53.096;8.246;2022-08-03T08:39:04;57128.34;;;-147.53;100.00
60715;BME280;46564;53.096;8.246;2022-08-03T08:44:06;57128.34;;;-147.53;100.00
60715;BME280;46564;53.096;8.246;2022-08-03T08:49:11;57128.34;;;-147.53;100.00
60715;BME280;46564;53.096;8.246;2022-08-03T08:54:20;57128.34;;;-147.53;100.00
60715;BME280;46564;53.096;8.246;2022-08-03T08:59:23;57128.34;;;-147.53;100.00
60715;BME280;46564;53.096;8.246;2022-08-03T09:04:27;57128.34;;;-147.53;100.00
60715;BME280;46564;53.096;8.246;2022-08-03T09:09:29;57128.34;;;-147.53;100.00
60715;BME280;46564;53.096;8.246;2022-08-03T09:14:51;57128.34;;;-147.53;100.00
60715;BME280;46564;53.096;8.246;2022-08-03T09:20:13;57128.34;;;-147.53;100.00
60715;BME280;46564;53.096;8.246;2022-08-03T09:25:15;57128.34;;;-147.53;100.00
60715;BME280;46564;53.096;8.246;2022-08-03T09:30:25;57128.34;;;-147.53;100.00
60715;BME280;46564;53.096;8.246;2022-08-03T09:35:45;57128.34;;;-147.53;100.00
60715;BME280;46564;53.096;8.246;2022-08-03T09:40:57;57128.34;;;-147.53;100.00
60715;BME280;46564;53.096;8.246;2022-08-03T09:46:03;57128.34;;;-147.53;100.00
60715;BME280;46564;53.096;8.246;2022-08-03T09:51:05;57128.34;;;-147.53;100.00
60715;BME280;46564;53.096;8.246;2022-08-03T09:56:14;57128.34;;;-147.53;100.00
60715;BME280;46564;53.096;8.246;2022-08-03T10:01:37;57128.34;;;-147.53;100.00
60715;BME280;46564;53.096;8.246;2022-08-03T10:06:44;57128.34;;;-147.53;100.00
60715;BME280;46564;53.096;8.246;2022-08-03T10:11:46;57128.34;;;-147.53;100.00
60715;BME280;46564;53.096;8.246;2022-08-03T10:16:48;57128.34;;;-147.53;100.00
60715;BME280;46564;53.096;8.246;2022-08-03T10:21:55;57128.34;;;-147.53;100.00
60715;BME280;46564;53.096;8.246;2022-08-03T10:27:06;57128.34;;;-147.53;100.00
60715;BME280;46564;53.096;8.246;2022-08-03T10:32:13;57128.34;;;-147.53;100.00
60715;BME280;46564;53.096;8.246;2022-08-03T10:37:16;57128.34;;;-147.53;100.00
60715;BME280;46564;53.096;8.246;2022-08-03T10:42:20;57128.34;;;-147.53;100.00
60715;BME280;46564;53.096;8.246;2022-08-03T10:47:24;57128.34;;;-147.53;100.00
60715;BME280;46564;53.096;8.246;2022-08-03T10:52:26;57128.34;;;-147.53;100.00
60715;BME280;46564;53.096;8.246;2022-08-03T10:57:52;57128.34;;;-147.53;100.00
60715;BME280;46564;53.096;8.246;2022-08-03T11:08:26;57128.34;;;-147.53;100.00
60715;BME280;46564;53.096;8.246;2022-08-03T11:13:30;57128.34;;;-147.53;100.00
60715;BME280;46564;53.096;8.246;2022-08-03T11:18:34;57128.34;;;-147.53;100.00
60715;BME280;46564;53.096;8.246;2022-08-03T11:23:44;57128.34;;;-147.53;100.00
60715;BME280;46564;53.096;8.246;2022-08-03T11:29:25;57128.34;;;-147.53;100.00
60715;BME280;46564;53.096;8.246;2022-08-03T11:34:27;57128.34;;;-147.53;100.00
60715;BME280;46564;53.096;8.246;2022-08-03T11:39:42;57128.34;;;-147.53;100.00
60715;BME280;46564;53.096;8.246;2022-08-03T11:44:46;57128.34;;;-147.53;100.00
60715;BME280;46564;53.096;8.246;2022-08-03T11:49:50;57128.34;;;-147.53;100.00
60715;BME280;46564;53.096;8.246;2022-08-03T11:54:53;57128.34;;;-147.53;100.00
60715;BME280;46564;53.096;8.246;2022-08-03T11:59:57;57128.34;;;-147.53;100.00
60715;BME280;46564;53.096;8.246;2022-08-03T12:04:59;57128.34;;;-147.53;100.00
60715;BME280;46564;53.096;8.246;2022-08-03T12:10:06;57128.34;;;-147.53;100.00
60715;BME280;46564;53.096;8.246;2022-08-03T12:15:09;57128.34;;;-147.53;100.00
60715;BME280;46564;53.096;8.246;2022-08-03T12:20:20;57128.34;;;-147.53;100.00
60715;BME280;46564;53.096;8.246;2022-08-03T12:25:36;57128.34;;;-147.53;100.00
60715;BME280;46564;53.096;8.246;2022-08-03T12:30:40;57128.34;;;-147.53;100.00
60715;BME280;46564;53.096;8.246;2022-08-03T12:35:42;57128.34;;;-147.53;100.00
60715;BME280;46564;53.096;8.246;2022-08-03T12:41:01;57128.34;;;-147.53;100.00
60715;BME280;46564;53.096;8.246;2022-08-03T12:46:16;57128.34;;;-147.53;100.00
60715;BME280;46564;53.096;8.246;2022-08-03T12:51:18;57128.34;;;-147.53;100.00
60715;BME280;46564;53.096;8.246;2022-08-03T12:56:20;57128.34;;;-147.53;100.00
60715;BME280;46564;53.096;8.246;2022-08-03T13:01:22;57128.34;;;-147.53;100.00
60715;BME280;46564;53.096;8.246;2022-08-03T13:06:27;57128.34;;;-147.53;100.00
60715;BME280;46564;53.096;8.246;2022-08-03T13:11:29;57128.34;;;-147.53;100.00
60715;BME280;46564;53.096;8.246;2022-08-03T13:16:51;57128.34;;;-147.53;100.00
60715;BME280;46564;53.096;8.246;2022-08-03T13:21:52;57128.34;;;-147.53;100.00
60715;BME280;46564;53.096;8.246;2022-08-03T13:27:04;57128.34;;;-147.53;100.00
60715;BME280;46564;53.096;8.246;2022-08-03T13:32:28;57128.34;;;-147.53;100.00
60715;BME280;46564;53.096;8.246;2022-08-03T13:37:30;57128.34;;;-147.53;100.00
60715;BME280;46564;53.096;8.246;2022-08-03T13:42:35;57128.34;;;-147.53;100.00
60715;BME280;46564;53.096;8.246;2022-08-03T13:47:37;57128.34;;;-147.53;100.00
60715;BME280;46564;53.096;8.246;2022-08-03T13:52:39;57128.34;;;-147.53;100.00
60715;BME280;46564;53.096;8.246;2022-08-03T13:57:40;57128.34;;;-147.53;100.00
60715;BME280;46564;53.096;8.246;2022-08-03T14:03:02;57128.34;;;-147.53;100.00
60715;BME280;46564;53.096;8.246;2022-08-03T14:08:13;57128.34;;;-147.53;100.00
60715;BME280;46564;53.096;8.246;2022-08-03T14:13:15;57128.34;;;-147.53;100.00
60715;BME280;46564;53.096;8.246;2022-08-03T14:18:19;57128.34;;;-147.53;100.00
60715;BME280;46564;53.096;8.246;2022-08-03T14:23:35;57128.34;;;-147.53;100.00
60715;BME280;46564;53.096;8.246;2022-08-03T14:28:38;57128.34;;;-147.53;100.00
60715;BME280;46564;53.096;8.246;2022-08-03T14:33:39;57128.34;;;-147.53;100.00
60715;BME280;46564;53.096;8.246;2022-08-03T14:38:41;57128.34;;;-147.53;100.00
60715;BME280;46564;53.096;8.246;2022-08-03T14:43:43;57128.34;;;-147.53;100.00
60715;BME280;46564;53.096;8.246;2022-08-03T14:49:02;57128.34;;;-147.53;100.00
60715;BME280;46564;53.096;8.246;2022-08-03T14:54:25;57128.34;;;-147.53;100.00
60715;BME280;46564;53.096;8.246;2022-08-03T14:59:27;57128.34;;;-147.53;100.00
60715;BME280;46564;53.096;8.246;2022-08-03T15:04:48;57128.34;;;-147.53;100.00
60715;BME280;46564;53.096;8.246;2022-08-03T15:09:50;57128.34;;;-147.53;100.00
60715;BME280;46564;53.096;8.246;2022-08-03T15:14:52;57128.34;;;-147.53;100.00
60715;BME280;46564;53.096;8.246;2022-08-03T15:19:54;57128.34;;;-147.53;100.00
60715;BME280;46564;53.096;8.246;2022-08-03T15:25:06;57128.34;;;-147.53;100.00
60715;BME280;46564;53.096;8.246;2022-08-03T15:30:28;57128.34;;;-147.53;100.00
60715;BME280;46564;53.096;8.246;2022-08-03T15:35:34;57128.34;;;-147.53;100.00
60715;BME280;46564;53.096;8.246;2022-08-03T15:40:36;57128.34;;;-147.53;100.00
60715;BME280;46564;53.096;8.246;2022-08-03T15:45:38;57128.34;;;-147.53;100.00
60715;BME280;46564;53.096;8.246;2022-08-03T15:50:42;57128.34;;;-147.53;100.00
60715;BME280;46564;53.096;8.246;2022-08-03T15:55:44;57128.34;;;-147.53;100.00
60715;BME280;46564;53.096;8.246;2022-08-03T16:00:45;57128.34;;;-147.53;100.00
60715;BME280;46564;53.096;8.246;2022-08-03T16:05:47;57128.34;;;-147.53;100.00
60715;BME280;46564;53.096;8.246;2022-08-03T16:10:50;57128.34;;;-147.53;100.00
60715;BME280;46564;53.096;8.246;2022-08-03T16:15:52;57128.34;;;-147.53;100.00
60715;BME280;46564;53.096;8.246;2022-08-03T16:20:54;57128.34;;;-147.53;100.00
60715;BME280;46564;53.096;8.246;2022-08-03T16:25:56;57128.34;;;-147.53;100.00
60715;BME280;46564;53.096;8.246;2022-08-03T16:30:57;57128.34;;;-147.53;100.00
60715;BME280;46564;53.096;8.246;2022-08-03T16:35:59;57128.34;;;-147.53;100.00
60715;BME280;46564;53.096;8.246;2022-08-03T16:41:01;57128.34;;;-147.53;100.00
60715;BME280;46564;53.096;8.246;2022-08-03T16:46:02;57128.34;;;-147.53;100.00
60715;BME280;46564;53.096;8.246;2022-08-03T16:51:04;57128.34;;;-147.53;100.00
60715;BME280;46564;53.096;8.246;2022-08-03T16:56:06;57128.34;;;-147.53;100.00
60715;BME280;46564;53.096;8.246;2022-08-03T17:01:12;57128.34;;;-147.53;100.00
60715;BME280;46564;53.096;8.246;2022-08-03T17:06:24;57128.34;;;-147.53;100.00
60715;BME280;46564;53.096;8.246;2022-08-03T17:11:37;57128.34;;;-147.53;100.00
60715;BME280;46564;53.096;8.246;2022-08-03T17:16:46;57128.34;;;-147.53;100.00
60715;BME280;46564;53.096;8.246;2022-08-03T17:22:08;57128.34;;;-147.53;100.00
60715;BME280;46564;53.096;8.246;2022-08-03T17:27:16;57128.34;;;-147.53;100.00
60715;BME280;46564;53.096;8.246;2022-08-03T17:32:40;57128.34;;;-147.53;100.00
60715;BME280;46564;53.096;8.246;2022-08-03T17:37:58;57128.34;;;-147.53;100.00
60715;BME280;46564;53.096;8.246;2022-08-03T17:43:04;57128.34;;;-147.53;100.00
60715;BME280;46564;53.096;8.246;2022-08-03T17:48:26;57128.34;;;-147.53;100.00
60715;BME280;46564;53.096;8.246;2022-08-03T17:53:30;57128.34;;;-147.53;100.00
60715;BME280;46564;53.096;8.246;2022-08-03T17:59:00;57128.34;;;-147.53;100.00
60715;BME280;46564;53.096;8.246;2022-08-03T18:04:02;57128.34;;;-147.53;100.00
60715;BME280;46564;53.096;8.246;2022-08-03T18:09:12;57128.34;;;-147.53;100.00
60715;BME280;46564;53.096;8.246;2022-08-03T18:15:20;57128.34;;;-147.53;100.00
60715;BME280;46564;53.096;8.246;2022-08-03T18:20:09;57128.34;;;-147.53;100.00
60715;BME280;46564;53.096;8.246;2022-08-03T18:25:31;57128.34;;;-147.53;100.00
60715;BME280;46564;53.096;8.246;2022-08-03T18:30:46;57128.34;;;-147.53;100.00
60715;BME280;46564;53.096;8.246;2022-08-03T18:35:56;57128.34;;;-147.53;100.00
60715;BME280;46564;53.096;8.246;2022-08-03T18:40:58;57128.34;;;-147.53;100.00
60715;BME280;46564;53.096;8.246;2022-08-03T18:49:29;101300.47;;;25.09;65.78
60715;BME280;46564;53.096;8.246;2022-08-03T18:54:54;101292.91;;;24.68;67.21
60715;BME280;46564;53.096;8.246;2022-08-03T19:00:15;101301.41;;;24.52;68.21
60715;BME280;46564;53.096;8.246;2022-08-03T19:05:25;101309.66;;;24.46;68.76
60715;BME280;46564;53.096;8.246;2022-08-03T19:10:53;101314.25;;;24.14;69.76
60715;BME280;46564;53.096;8.246;2022-08-03T19:16:02;101322.81;;;23.96;70.70
60715;BME280;46564;53.096;8.246;2022-08-03T19:21:09;101320.75;;;23.74;71.53
60715;BME280;46564;53.096;8.246;2022-08-03T19:26:16;101323.22;;;23.51;72.38
60715;BME280;46564;53.096;8.246;2022-08-03T19:31:38;101326.25;;;23.38;73.01
60715;BME280;46564;53.096;8.246;2022-08-03T19:36:59;101325.91;;;23.18;73.79
60715;BME280;46564;53.096;8.246;2022-08-03T19:42:09;101332.03;;;22.87;74.58
60715;BME280;46564;53.096;8.246;2022-08-03T19:47:35;101335.84;;;22.76;75.37
60715;BME280;46564;53.096;8.246;2022-08-03T19:52:42;101329.84;;;22.67;75.93
60715;BME280;46564;53.096;8.246;2022-08-03T19:57:48;101343.63;;;22.50;76.35
60715;BME280;46564;53.096;8.246;2022-08-03T20:02:59;101342.25;;;22.30;76.79
60715;BME280;46564;53.096;8.246;2022-08-03T20:08:04;101338.97;;;22.19;77.14
60715;BME280;46564;53.096;8.246;2022-08-03T20:13:06;101340.19;;;22.04;77.52
60715;BME280;46564;53.096;8.246;2022-08-03T20:18:08;101343.06;;;21.93;77.87
60715;BME280;46564;53.096;8.246;2022-08-03T20:23:18;101343.25;;;21.84;78.26
60715;BME280;46564;53.096;8.246;2022-08-03T20:28:31;101340.78;;;21.75;78.54
60715;BME280;46564;53.096;8.246;2022-08-03T20:34:05;101337.28;;;21.73;78.92
60715;BME280;46564;53.096;8.246;2022-08-03T20:39:56;101329.63;;;21.56;79.15
60715;BME280;46564;53.096;8.246;2022-08-03T20:45:28;101326.41;;;21.38;79.83
60715;BME280;46564;53.096;8.246;2022-08-03T20:51:08;101330.91;;;21.33;80.18
60715;BME280;46564;53.096;8.246;2022-08-03T20:56:54;101332.88;;;21.25;80.57
60715;BME280;46564;53.096;8.246;2022-08-03T21:02:17;101326.63;;;21.24;80.68
60715;BME280;46564;53.096;8.246;2022-08-03T21:13:57;101318.94;;;21.09;81.01
60715;BME280;46564;53.096;8.246;2022-08-03T21:20:04;101315.63;;;20.96;81.37
60715;BME280;46564;53.096;8.246;2022-08-03T21:25:53;101308.66;;;20.89;81.93
60715;BME280;46564;53.096;8.246;2022-08-03T21:32:02;101299.13;;;20.75;82.17
60715;BME280;46564;53.096;8.246;2022-08-03T21:38:06;101306.31;;;20.69;82.48
60715;BME280;46564;53.096;8.246;2022-08-03T21:44:12;101310.03;;;20.58;82.72
60715;BME280;46564;53.096;8.246;2022-08-03T21:50:16;101300.38;;;20.51;83.11
60715;BME280;46564;53.096;8.246;2022-08-03T21:56:11;101300.59;;;20.39;83.45
60715;BME280;46564;53.096;8.246;2022-08-03T22:01:52;101282.91;;;20.35;83.61
60715;BME280;46564;53.096;8.246;2022-08-03T22:07:33;101290.22;;;20.19;83.86
60715;BME280;46564;53.096;8.246;2022-08-03T22:13:18;101289.53;;;20.07;84.61
60715;BME280;46564;53.096;8.246;2022-08-03T22:19:04;101282.59;;;19.95;84.76
60715;BME280;46564;53.096;8.246;2022-08-03T22:24:47;101278.25;;;19.90;85.22
60715;BME280;46564;53.096;8.246;2022-08-03T22:30:55;101279.13;;;19.90;85.53
60715;BME280;46564;53.096;8.246;2022-08-03T22:36:43;101273.03;;;19.84;85.65
60715;BME280;46564;53.096;8.246;2022-08-03T22:41:59;101274.00;;;19.73;85.82
60715;BME280;46564;53.096;8.246;2022-08-03T22:47:49;101271.44;;;19.67;86.26
60715;BME280;46564;53.096;8.246;2022-08-03T22:53:05;101275.06;;;19.58;86.64
60715;BME280;46564;53.096;8.246;2022-08-03T22:58:50;101272.47;;;19.54;86.81
60715;BME280;46564;53.096;8.246;2022-08-03T23:04:05;101270.72;;;19.51;86.93
60715;BME280;46564;53.096;8.246;2022-08-03T23:09:39;101261.06;;;19.44;86.95
60715;BME280;46564;53.096;8.246;2022-08-03T23:15:20;101267.38;;;19.38;87.20
60715;BME280;46564;53.096;8.246;2022-08-03T23:21:07;101261.25;;;19.30;87.39
60715;BME280;46564;53.096;8.246;2022-08-03T23:27:14;101243.59;;;19.28;87.99
60715;BME280;46564;53.096;8.246;2022-08-03T23:32:43;101251.59;;;19.21;87.97
60715;BME280;46564;53.096;8.246;2022-08-03T23:38:41;101241.94;;;19.17;88.21
60715;BME280;46564;53.096;8.246;2022-08-03T23:44:24;101245.53;;;19.12;88.43
60715;BME280;46564;53.096;8.246;2022-08-03T23:50:34;101243.84;;;19.04;88.86
60715;BME280;46564;53.096;8.246;2022-08-03T23:56:29;101245.66;;;19.02;89.14
